Time;durP1;ratioP1;P1;durP2;ratioP2;P2;SDS_P1;SDS_P2;PMS_P1;PMS_P2;Temp;Humidity;BMP_temperature;BMP_pressure;BME280_temperature;BME280_humidity;BME280_pressure;Samples;Min_cycle;Max_cycle;Signal;HPM_P1;HPM_P2
2023/11/03 00:00:21;;;;;;;9.70;9.00;;;22.10;77.70;;;;;;5034100;28;20477;-63
2023/11/03 00:02:48;;;;;;;8.30;7.90;;;22.10;77.60;;;;;;5034027;28;20469;-64
2023/11/03 00:05:17;;;;;;;8.77;8.27;;;22.10;77.50;;;;;;5031565;28;20528;-63
2023/11/03 00:07:44;;;;;;;9.10;8.60;;;22.10;77.40;;;;;;5034129;28;20469;-62
2023/11/03 00:10:11;;;;;;;8.40;8.10;;;22.10;77.50;;;;;;5033927;28;20445;-63
2023/11/03 00:12:39;;;;;;;8.10;7.80;;;22.10;77.50;;;;;;5033820;28;20519;-64
2023/11/03 00:15:09;;;;;;;8.63;8.23;;;22.00;77.40;;;;;;5016805;28;20493;-64
2023/11/03 00:17:37;;;;;;;8.23;7.93;;;22.10;77.50;;;;;;5013930;28;20442;-63
2023/11/03 00:20:05;;;;;;;9.30;8.80;;;22.00;77.40;;;;;;5014014;28;20458;-63
2023/11/03 00:22:33;;;;;;;7.90;7.60;;;22.00;77.40;;;;;;5014124;28;20453;-63
2023/11/03 00:25:01;;;;;;;8.30;8.00;;;22.00;77.50;;;;;;5013784;28;20581;-64
2023/11/03 00:27:27;;;;;;;9.10;8.73;;;22.00;77.50;;;;;;5013834;28;20968;-63
2023/11/03 00:29:57;;;;;;;7.90;7.70;;;22.00;77.50;;;;;;5013779;28;20500;-64
2023/11/03 00:32:24;;;;;;;7.63;7.43;;;22.00;77.40;;;;;;5013728;28;20850;-63
2023/11/03 00:34:51;;;;;;;7.73;7.33;;;22.00;77.40;;;;;;5013650;28;20469;-63
2023/11/03 00:37:18;;;;;;;8.20;8.00;;;22.00;77.40;;;;;;5013674;28;20975;-63
2023/11/03 00:39:47;;;;;;;8.20;8.00;;;22.00;77.30;;;;;;5013574;28;20834;-63
2023/11/03 00:42:13;;;;;;;8.17;7.97;;;22.00;77.20;;;;;;5013755;28;20477;-63
2023/11/03 00:44:40;;;;;;;7.90;7.40;;;22.00;77.30;;;;;;5013574;28;20540;-63
2023/11/03 00:47:08;;;;;;;7.80;7.60;;;21.90;77.20;;;;;;5013252;28;20525;-63
2023/11/03 00:49:37;;;;;;;7.70;7.50;;;22.00;77.30;;;;;;5013511;28;20868;-64
2023/11/03 00:52:04;;;;;;;7.77;7.57;;;21.90;77.10;;;;;;5013620;28;20509;-63
2023/11/03 00:54:31;;;;;;;8.10;7.87;;;21.90;77.20;;;;;;5013170;28;20481;-63
2023/11/03 00:57:00;;;;;;;7.87;7.53;;;21.90;77.10;;;;;;5013532;28;20477;-64
2023/11/03 00:59:27;;;;;;;7.87;7.67;;;21.90;77.10;;;;;;5013286;28;21100;-64
2023/11/03 01:01:54;;;;;;;8.10;7.90;;;21.90;77.00;;;;;;5016084;28;20472;-63
2023/11/03 01:04:21;;;;;;;8.27;7.97;;;21.90;77.10;;;;;;5032704;28;20495;-63
2023/11/03 01:06:48;;;;;;;8.40;7.67;;;21.90;77.10;;;;;;5032616;28;20992;-63
2023/11/03 01:09:15;;;;;;;8.33;7.93;;;21.90;77.10;;;;;;5032855;28;20921;-63
2023/11/03 01:11:42;;;;;;;7.83;7.63;;;21.90;77.10;;;;;;5032475;28;20877;-63
2023/11/03 01:14:10;;;;;;;8.10;7.70;;;21.90;77.20;;;;;;5032058;28;20503;-64
2023/11/03 01:16:38;;;;;;;7.93;7.63;;;21.90;77.10;;;;;;5032558;28;20441;-64
2023/11/03 01:19:05;;;;;;;8.43;8.00;;;21.90;77.10;;;;;;5032638;28;20485;-64
2023/11/03 01:21:32;;;;;;;7.80;7.50;;;21.90;77.10;;;;;;5032370;28;20476;-63
2023/11/03 01:23:59;;;;;;;8.33;8.03;;;21.90;77.10;;;;;;5032323;28;20488;-63
2023/11/03 01:26:26;;;;;;;7.20;7.00;;;21.80;77.00;;;;;;5032474;28;20564;-63
2023/11/03 01:28:53;;;;;;;7.07;6.87;;;21.80;77.00;;;;;;5032570;28;20445;-63
2023/11/03 01:31:21;;;;;;;7.57;7.37;;;21.80;77.10;;;;;;5032307;28;21164;-63
2023/11/03 01:33:49;;;;;;;7.60;7.30;;;21.80;77.00;;;;;;5031899;28;20449;-63
2023/11/03 01:36:16;;;;;;;7.00;6.80;;;21.80;77.00;;;;;;5032299;28;20448;-63
2023/11/03 01:38:43;;;;;;;7.40;7.20;;;21.80;77.00;;;;;;5032341;28;20511;-63
2023/11/03 01:41:11;;;;;;;7.90;7.70;;;21.80;76.90;;;;;;5032164;28;20441;-63
2023/11/03 01:43:39;;;;;;;7.60;7.40;;;21.80;76.90;;;;;;5019275;28;20441;-63
2023/11/03 01:46:07;;;;;;;8.10;7.80;;;21.80;77.00;;;;;;5012206;28;20525;-63
2023/11/03 01:48:35;;;;;;;7.57;7.40;;;21.80;77.00;;;;;;5012281;28;20450;-64
2023/11/03 01:51:04;;;;;;;6.90;6.80;;;21.80;76.90;;;;;;5012402;28;20476;-63
2023/11/03 01:53:32;;;;;;;7.70;7.50;;;21.80;76.80;;;;;;5012265;28;20508;-63
2023/11/03 01:56:00;;;;;;;7.93;7.60;;;21.80;76.80;;;;;;5012030;28;20556;-63
2023/11/03 01:58:27;;;;;;;7.80;7.60;;;21.80;76.80;;;;;;5012228;28;20477;-63
2023/11/03 02:00:54;;;;;;;7.63;7.43;;;21.80;76.80;;;;;;5011756;28;20477;-63
2023/11/03 02:03:21;;;;;;;8.67;8.37;;;21.80;76.80;;;;;;5016036;28;20446;-63
2023/11/03 02:05:49;;;;;;;7.97;7.67;;;21.80;76.80;;;;;;5012152;28;20524;-63
2023/11/03 02:08:17;;;;;;;7.20;7.00;;;21.80;76.70;;;;;;5012223;28;20457;-64
2023/11/03 02:10:44;;;;;;;7.73;7.47;;;21.80;76.70;;;;;;5012092;28;20542;-63
2023/11/03 02:13:11;;;;;;;8.07;7.77;;;21.80;76.70;;;;;;5023886;28;20449;-63
2023/11/03 02:15:39;;;;;;;7.53;7.33;;;21.80;76.80;;;;;;5031744;28;20457;-62
2023/11/03 02:18:07;;;;;;;7.17;7.07;;;21.80;76.70;;;;;;5031790;28;20848;-62
2023/11/03 02:20:34;;;;;;;7.87;7.57;;;21.80;76.70;;;;;;5031995;28;20448;-63
2023/11/03 02:23:03;;;;;;;7.83;7.63;;;21.80;76.70;;;;;;5021068;28;20529;-65
2023/11/03 02:25:30;;;;;;;7.10;6.90;;;21.90;76.80;;;;;;5011802;28;20466;-62
2023/11/03 02:27:58;;;;;;;7.70;7.50;;;21.90;76.80;;;;;;5011940;28;20474;-63
2023/11/03 02:30:25;;;;;;;7.37;7.20;;;21.80;76.70;;;;;;5011928;28;20525;-63
2023/11/03 02:32:52;;;;;;;7.17;7.00;;;21.80;76.60;;;;;;5011901;28;20528;-63
2023/11/03 02:35:19;;;;;;;7.10;7.00;;;21.80;76.70;;;;;;5011751;28;20504;-63
2023/11/03 02:37:46;;;;;;;7.33;7.13;;;21.80;76.70;;;;;;5011818;28;20960;-63
2023/11/03 02:40:15;;;;;;;7.50;7.30;;;21.80;76.70;;;;;;5012030;28;20442;-62
2023/11/03 02:42:42;;;;;;;7.70;7.50;;;21.80;76.70;;;;;;5019061;28;20489;-63
2023/11/03 02:45:11;;;;;;;7.40;7.20;;;21.80;76.70;;;;;;5031290;28;20492;-64
2023/11/03 02:47:38;;;;;;;8.27;8.00;;;21.80;76.70;;;;;;5031342;28;20528;-63
2023/11/03 02:50:06;;;;;;;6.93;6.77;;;21.80;76.70;;;;;;5031487;28;20499;-64
2023/11/03 02:52:33;;;;;;;6.80;6.70;;;21.70;76.60;;;;;;5011729;28;20450;-63
2023/11/03 02:55:00;;;;;;;6.80;6.70;;;21.80;76.70;;;;;;5011604;28;20506;-63
2023/11/03 02:57:28;;;;;;;7.00;6.90;;;21.70;76.60;;;;;;5012725;28;20866;-64
2023/11/03 02:59:55;;;;;;;6.80;6.70;;;21.70;76.60;;;;;;5011596;28;20480;-63
2023/11/03 03:02:22;;;;;;;6.77;6.67;;;21.70;76.60;;;;;;5011731;28;20473;-63
2023/11/03 03:04:49;;;;;;;7.17;7.00;;;21.70;76.70;;;;;;5011649;28;20995;-64
2023/11/03 03:07:15;;;;;;;6.87;6.77;;;21.70;76.70;;;;;;5011689;28;20895;-62
2023/11/03 03:09:42;;;;;;;6.93;6.83;;;21.70;76.60;;;;;;5011780;28;20870;-64
2023/11/03 03:12:09;;;;;;;6.70;6.60;;;21.70;76.70;;;;;;5013240;28;21068;-63
2023/11/03 03:14:37;;;;;;;6.70;6.60;;;21.70;76.70;;;;;;5014959;28;20819;-63
2023/11/03 03:17:04;;;;;;;7.50;7.30;;;21.70;76.80;;;;;;5015134;28;20497;-63
2023/11/03 03:19:31;;;;;;;6.93;6.83;;;21.70;76.80;;;;;;5015178;28;20482;-63
2023/11/03 03:21:58;;;;;;;7.53;7.23;;;21.70;76.80;;;;;;5015049;28;20522;-63
2023/11/03 03:24:25;;;;;;;7.10;7.00;;;21.70;76.80;;;;;;5014931;28;20500;-64
2023/11/03 03:26:53;;;;;;;7.23;7.00;;;21.70;76.80;;;;;;5014795;28;20878;-64
2023/11/03 03:29:19;;;;;;;7.47;7.37;;;21.70;76.80;;;;;;5014944;28;21082;-64
2023/11/03 03:31:48;;;;;;;7.20;7.00;;;21.70;76.80;;;;;;5014830;28;20984;-63
2023/11/03 03:34:15;;;;;;;7.40;7.23;;;21.70;76.80;;;;;;5014842;28;20462;-63
2023/11/03 03:36:42;;;;;;;7.60;7.40;;;21.70;77.50;;;;;;5015044;28;20485;-64
2023/11/03 03:39:09;;;;;;;7.80;7.60;;;21.70;76.70;;;;;;5014769;28;20481;-63
2023/11/03 03:41:35;;;;;;;7.87;7.57;;;21.70;76.70;;;;;;5014644;28;20470;-63
2023/11/03 03:44:02;;;;;;;7.47;7.37;;;21.70;76.80;;;;;;5014534;28;20486;-63
2023/11/03 03:46:36;;;;;;;7.43;7.23;;;21.70;76.80;;;;;;5014741;28;20903;-64
2023/11/03 03:49:05;;;;;;;8.43;8.23;;;21.60;76.70;;;;;;5014589;28;20478;-64
2023/11/03 03:51:32;;;;;;;7.77;7.53;;;21.60;76.80;;;;;;5014516;28;20446;-63
2023/11/03 03:53:58;;;;;;;7.60;7.50;;;21.60;76.70;;;;;;5014343;28;20533;-63
2023/11/03 03:56:26;;;;;;;7.77;7.57;;;21.60;76.70;;;;;;5014507;28;20481;-64
2023/11/03 03:58:53;;;;;;;7.20;7.10;;;21.70;76.90;;;;;;5014293;28;21209;-64
2023/11/03 04:01:21;;;;;;;8.20;7.90;;;21.70;76.90;;;;;;5014372;28;20481;-64
2023/11/03 04:03:48;;;;;;;8.20;8.10;;;21.70;76.90;;;;;;5016514;28;20446;-64
2023/11/03 04:06:16;;;;;;;8.63;8.33;;;21.70;76.80;;;;;;5033943;28;20516;-63
2023/11/03 04:08:43;;;;;;;8.30;8.10;;;21.70;76.70;;;;;;5034056;28;20858;-64
2023/11/03 04:11:12;;;;;;;8.50;8.30;;;21.70;76.70;;;;;;5033974;28;20476;-63
2023/11/03 04:13:39;;;;;;;8.23;8.03;;;21.70;76.70;;;;;;5019664;28;20447;-63
2023/11/03 04:16:08;;;;;;;8.27;8.07;;;21.70;76.70;;;;;;5032057;28;20520;-63
2023/11/03 04:18:35;;;;;;;8.50;8.30;;;21.70;76.70;;;;;;5033739;28;20844;-64
2023/11/03 04:21:02;;;;;;;8.30;8.10;;;21.70;76.70;;;;;;5033827;28;20904;-64
2023/11/03 04:23:30;;;;;;;8.77;8.47;;;21.70;76.60;;;;;;5033159;28;20455;-63
2023/11/03 04:25:57;;;;;;;8.40;8.20;;;21.70;76.60;;;;;;5033438;28;20488;-63
2023/11/03 04:28:24;;;;;;;8.23;8.03;;;21.70;76.60;;;;;;5033548;28;20480;-64
2023/11/03 04:30:51;;;;;;;8.13;7.93;;;21.70;76.70;;;;;;5033633;28;20466;-63
2023/11/03 04:33:18;;;;;;;8.27;8.07;;;21.70;76.60;;;;;;5022786;28;20477;-63
2023/11/03 04:35:45;;;;;;;8.67;8.47;;;21.70;76.60;;;;;;5013581;28;20502;-62
2023/11/03 04:38:12;;;;;;;8.50;8.30;;;21.70;76.60;;;;;;5013740;28;20478;-63
2023/11/03 04:40:40;;;;;;;8.90;8.70;;;21.70;76.60;;;;;;5013729;28;20478;-64
2023/11/03 04:43:07;;;;;;;8.60;8.40;;;21.70;76.60;;;;;;5013400;28;20881;-63
2023/11/03 04:45:34;;;;;;;8.50;8.30;;;21.70;76.60;;;;;;5013330;28;20889;-64
2023/11/03 04:48:01;;;;;;;9.10;8.90;;;21.70;76.60;;;;;;5013400;28;20917;-64
2023/11/03 04:50:28;;;;;;;8.63;8.43;;;21.70;76.60;;;;;;5013599;28;20470;-63
2023/11/03 04:52:55;;;;;;;9.03;8.83;;;21.70;76.60;;;;;;5020006;28;20476;-63
2023/11/03 04:55:22;;;;;;;8.50;8.30;;;21.70;76.50;;;;;;5033014;28;20517;-62
2023/11/03 04:57:50;;;;;;;8.83;8.63;;;21.70;76.50;;;;;;5033086;28;20473;-64
2023/11/03 05:00:17;;;;;;;9.00;8.80;;;21.60;76.40;;;;;;5032985;28;20854;-64
2023/11/03 05:02:44;;;;;;;8.87;8.63;;;21.60;76.50;;;;;;5031091;28;20449;-64
2023/11/03 05:05:11;;;;;;;9.23;9.03;;;21.60;76.40;;;;;;5032532;28;20468;-63
2023/11/03 05:07:40;;;;;;;9.10;8.90;;;21.60;76.40;;;;;;5033096;28;20523;-64
2023/11/03 05:10:08;;;;;;;9.20;9.00;;;21.60;76.50;;;;;;5032770;28;20484;-64
2023/11/03 05:12:35;;;;;;;9.57;9.37;;;21.60;76.50;;;;;;5028936;28;20926;-63
2023/11/03 05:15:05;;;;;;;8.80;8.60;;;21.60;76.60;;;;;;5013002;28;20506;-62
2023/11/03 05:17:32;;;;;;;9.60;9.30;;;21.60;76.60;;;;;;5013308;28;20871;-63
2023/11/03 05:19:59;;;;;;;9.10;8.90;;;21.60;76.60;;;;;;5012823;28;20868;-64
2023/11/03 05:22:26;;;;;;;9.13;8.93;;;21.60;76.70;;;;;;5012845;28;20867;-64
2023/11/03 05:24:52;;;;;;;9.00;8.80;;;21.60;76.70;;;;;;5012794;28;20494;-64
2023/11/03 05:27:19;;;;;;;9.27;9.07;;;21.60;76.60;;;;;;5012529;28;20522;-64
2023/11/03 05:29:47;;;;;;;9.30;9.00;;;21.60;76.70;;;;;;5013686;28;20984;-63
2023/11/03 05:32:15;;;;;;;9.10;8.80;;;21.50;76.50;;;;;;5012658;28;20529;-64
2023/11/03 05:34:42;;;;;;;8.70;8.50;;;21.60;76.70;;;;;;5011960;28;20466;-64
2023/11/03 05:37:10;;;;;;;8.70;8.50;;;21.60;76.70;;;;;;5012604;28;20865;-64
2023/11/03 05:39:37;;;;;;;8.47;8.27;;;21.60;76.70;;;;;;5012500;28;20796;-64
2023/11/03 05:42:05;;;;;;;8.90;8.57;;;21.60;76.70;;;;;;5012608;28;20492;-64
2023/11/03 05:44:33;;;;;;;8.87;8.63;;;21.60;76.60;;;;;;5012802;28;20462;-64
2023/11/03 05:47:00;;;;;;;9.40;9.10;;;21.70;76.70;;;;;;5012379;28;20941;-64
2023/11/03 05:49:29;;;;;;;8.83;8.43;;;21.70;76.70;;;;;;5021351;28;20445;-64
2023/11/03 05:51:55;;;;;;;8.90;8.70;;;21.70;76.70;;;;;;5031955;28;20522;-64
2023/11/03 05:54:22;;;;;;;9.30;9.10;;;21.70;76.70;;;;;;5031976;28;20504;-64
2023/11/03 05:56:49;;;;;;;9.00;8.70;;;21.70;76.80;;;;;;5031944;28;20472;-63
2023/11/03 05:59:16;;;;;;;9.60;9.20;;;21.70;76.90;;;;;;5031662;28;20480;-64
2023/11/03 06:01:44;;;;;;;10.07;9.77;;;21.70;76.90;;;;;;5032074;28;20480;-63
2023/11/03 06:04:11;;;;;;;9.53;9.27;;;21.70;77.00;;;;;;5031850;28;20848;-64
2023/11/03 06:06:40;;;;;;;9.23;9.00;;;21.70;76.90;;;;;;5031785;28;20469;-64
2023/11/03 06:09:07;;;;;;;8.47;8.27;;;21.70;76.90;;;;;;5031564;28;20484;-64
2023/11/03 06:11:34;;;;;;;9.03;8.80;;;21.70;76.90;;;;;;5031870;28;20445;-64
2023/11/03 06:14:01;;;;;;;9.07;8.77;;;21.70;76.90;;;;;;5031739;28;20905;-64
2023/11/03 06:16:27;;;;;;;9.07;8.80;;;21.60;76.80;;;;;;5031774;28;20443;-64
2023/11/03 06:18:54;;;;;;;8.60;8.40;;;21.60;76.90;;;;;;5031636;28;20449;-64
2023/11/03 06:21:21;;;;;;;8.57;8.37;;;21.60;76.90;;;;;;5031754;28;20198;-64
2023/11/03 06:23:49;;;;;;;9.53;9.10;;;21.60;76.90;;;;;;5031664;28;20523;-63
2023/11/03 06:26:16;;;;;;;8.23;8.03;;;21.60;76.90;;;;;;5031553;28;20528;-63
2023/11/03 06:28:43;;;;;;;8.83;8.43;;;21.60;76.90;;;;;;5031331;28;20838;-64
2023/11/03 06:31:10;;;;;;;9.43;9.13;;;21.60;76.80;;;;;;5031605;28;20496;-64
2023/11/03 06:33:37;;;;;;;8.77;8.57;;;21.60;76.80;;;;;;5014707;28;20470;-68
2023/11/03 06:36:04;;;;;;;8.30;8.00;;;21.60;76.90;;;;;;5011739;28;20500;-66
2023/11/03 06:38:31;;;;;;;8.80;8.50;;;21.70;80.00;;;;;;5025340;28;20531;-67
2023/11/03 06:41:00;;;;;;;8.93;8.70;;;21.80;79.70;;;;;;5012153;28;20478;-62
2023/11/03 06:43:27;;;;;;;10.33;9.97;;;21.80;78.60;;;;;;5011823;28;20475;-63
2023/11/03 06:45:54;;;;;;;9.50;9.10;;;21.80;79.00;;;;;;5013252;28;20466;-62
2023/11/03 06:48:21;;;;;;;9.90;9.20;;;21.80;78.50;;;;;;5027371;28;20517;-62
2023/11/03 06:50:48;;;;;;;16.73;10.60;;;21.80;79.60;;;;;;5035186;28;20488;-62
2023/11/03 06:53:15;;;;;;;11.87;10.90;;;21.90;80.20;;;;;;5035343;28;20481;-62
2023/11/03 06:55:42;;;;;;;12.17;11.00;;;21.90;81.90;;;;;;5035172;28;20504;-63
2023/11/03 06:58:10;;;;;;;13.10;10.90;;;22.00;82.90;;;;;;5025306;28;20448;-67
2023/11/03 07:00:37;;;;;;;18.60;13.97;;;22.00;83.30;;;;;;5015399;28;20496;-69
2023/11/03 07:03:04;;;;;;;24.40;14.43;;;22.10;89.20;;;;;;5015992;28;20474;-67
2023/11/03 07:05:31;;;;;;;28.20;15.40;;;22.10;94.10;;;;;;5015570;28;20505;-65
2023/11/03 07:07:58;;;;;;;33.17;18.30;;;22.10;95.30;;;;;;5015329;28;20517;-64
2023/11/03 07:10:25;;;;;;;15.70;13.33;;;22.20;96.20;;;;;;5027478;28;20444;-66
2023/11/03 07:12:52;;;;;;;27.33;12.50;;;22.10;96.60;;;;;;5034897;28;20457;-67
2023/11/03 07:15:21;;;;;;;13.80;12.40;;;22.20;95.70;;;;;;5035187;28;20493;-65
2023/11/03 07:17:47;;;;;;;16.43;13.10;;;22.20;95.00;;;;;;5035444;28;21030;-66
2023/11/03 07:20:15;;;;;;;28.20;14.23;;;22.20;94.80;;;;;;5034268;28;20499;-67
2023/11/03 07:22:42;;;;;;;14.83;11.90;;;22.20;94.20;;;;;;5034018;28;20437;-65
2023/11/03 07:25:09;;;;;;;22.80;12.87;;;22.20;93.50;;;;;;5034682;28;20523;-67
2023/11/03 07:27:37;;;;;;;13.63;12.37;;;22.30;93.30;;;;;;5035063;28;20520;-66
2023/11/03 07:30:05;;;;;;;16.00;12.30;;;22.30;92.90;;;;;;5026143;28;20452;-66
2023/11/03 07:32:33;;;;;;;18.27;15.80;;;22.30;92.60;;;;;;5015475;28;20473;-65
2023/11/03 07:35:03;;;;;;;13.10;11.90;;;22.30;92.20;;;;;;5014849;28;20498;-62
2023/11/03 07:37:29;;;;;;;13.40;12.00;;;22.30;91.80;;;;;;5015980;28;20439;-61
2023/11/03 07:39:57;;;;;;;15.43;12.60;;;22.30;91.50;;;;;;5015156;28;20549;-57
2023/11/03 07:42:24;;;;;;;12.17;10.93;;;22.30;91.00;;;;;;5024493;28;20455;-59
2023/11/03 07:44:52;;;;;;;19.87;15.27;;;22.30;91.00;;;;;;5034204;28;20500;-58
2023/11/03 07:47:19;;;;;;;13.30;11.80;;;22.30;90.70;;;;;;5034155;28;20480;-55
2023/11/03 07:49:47;;;;;;;11.23;10.43;;;22.30;90.50;;;;;;5034371;28;20476;-60
2023/11/03 07:52:14;;;;;;;12.40;10.90;;;22.20;90.30;;;;;;5034339;28;20496;-58
2023/11/03 07:54:41;;;;;;;14.50;11.17;;;22.20;90.10;;;;;;5033895;28;20507;-57
2023/11/03 07:57:09;;;;;;;12.60;11.70;;;22.20;90.00;;;;;;5033258;28;20528;-60
2023/11/03 07:59:36;;;;;;;12.77;11.57;;;22.20;89.70;;;;;;5033981;28;20529;-58
2023/11/03 08:02:03;;;;;;;12.37;11.27;;;22.10;89.20;;;;;;5034030;28;20444;-58
2023/11/03 08:04:30;;;;;;;12.27;11.33;;;22.10;88.90;;;;;;5033905;28;20504;-59
2023/11/03 08:06:59;;;;;;;13.37;12.23;;;22.10;88.60;;;;;;5033906;28;20480;-58
2023/11/03 08:09:27;;;;;;;12.90;11.70;;;22.10;88.30;;;;;;5033836;28;20487;-60
2023/11/03 08:11:54;;;;;;;12.50;11.67;;;22.10;88.00;;;;;;5034004;28;20536;-55
2023/11/03 08:14:21;;;;;;;14.87;12.70;;;22.10;87.70;;;;;;5033743;28;20492;-55
2023/11/03 08:16:48;;;;;;;12.03;11.23;;;22.10;87.50;;;;;;5033612;28;20447;-60
2023/11/03 08:19:15;;;;;;;12.60;11.80;;;22.10;87.30;;;;;;5033703;28;20437;-58
2023/11/03 08:21:42;;;;;;;12.73;11.50;;;22.10;87.00;;;;;;5033500;28;20496;-58
2023/11/03 08:24:12;;;;;;;12.57;11.77;;;22.00;86.60;;;;;;5033311;28;20447;-58
2023/11/03 08:26:39;;;;;;;12.53;11.67;;;22.00;86.60;;;;;;5033591;28;20477;-58
2023/11/03 08:29:08;;;;;;;11.97;11.33;;;22.00;86.40;;;;;;5033505;28;20521;-59
2023/11/03 08:31:35;;;;;;;12.90;11.80;;;22.00;86.30;;;;;;5033454;28;20456;-58
2023/11/03 08:34:04;;;;;;;13.80;12.70;;;22.00;86.00;;;;;;5033271;28;20476;-58
2023/11/03 08:36:31;;;;;;;12.07;10.97;;;22.00;85.90;;;;;;5033444;28;20442;-59
2023/11/03 08:38:58;;;;;;;12.63;11.93;;;21.90;85.60;;;;;;5033341;28;20528;-58
2023/11/03 08:41:26;;;;;;;12.37;11.27;;;21.90;85.40;;;;;;5033317;28;20437;-58
2023/11/03 08:43:53;;;;;;;12.77;11.77;;;21.90;85.20;;;;;;5032980;28;20460;-59
2023/11/03 08:46:20;;;;;;;11.47;10.97;;;21.90;85.10;;;;;;5033073;28;20473;-57
2023/11/03 08:48:47;;;;;;;12.57;11.67;;;22.00;85.00;;;;;;5033035;28;20571;-58
2023/11/03 08:51:16;;;;;;;11.47;10.70;;;22.00;84.80;;;;;;5033277;28;20477;-61
2023/11/03 08:53:44;;;;;;;11.53;11.03;;;22.00;84.60;;;;;;5033018;28;20455;-57
2023/11/03 08:56:12;;;;;;;11.87;11.10;;;22.00;84.40;;;;;;5032987;28;20469;-60
2023/11/03 08:58:41;;;;;;;11.93;11.30;;;22.00;84.40;;;;;;5033148;28;20967;-58
2023/11/03 09:01:09;;;;;;;12.40;11.30;;;22.00;84.10;;;;;;5032921;28;20467;-59
2023/11/03 09:03:37;;;;;;;11.67;10.80;;;22.00;84.00;;;;;;5032856;28;20441;-58
2023/11/03 09:06:05;;;;;;;11.60;11.10;;;22.00;83.90;;;;;;5032640;28;20496;-58
2023/11/03 09:08:33;;;;;;;11.33;10.73;;;22.00;83.80;;;;;;5032285;28;20481;-56
2023/11/03 09:11:00;;;;;;;10.80;10.40;;;22.00;83.60;;;;;;5032208;28;20449;-56
2023/11/03 09:13:27;;;;;;;10.90;10.40;;;22.00;83.50;;;;;;5032671;28;20967;-58
2023/11/03 09:15:56;;;;;;;11.40;10.90;;;22.00;83.40;;;;;;5032798;28;20461;-58
2023/11/03 09:18:23;;;;;;;11.80;11.10;;;22.00;83.20;;;;;;5032517;28;20449;-59
2023/11/03 09:20:50;;;;;;;11.40;10.60;;;21.90;83.10;;;;;;5032450;28;20449;-55
2023/11/03 09:23:17;;;;;;;11.40;11.00;;;21.90;82.90;;;;;;5032407;28;20448;-60
2023/11/03 09:25:44;;;;;;;12.93;12.37;;;21.90;82.80;;;;;;5032291;28;20552;-60
2023/11/03 09:28:11;;;;;;;12.67;11.63;;;21.90;82.80;;;;;;5032213;28;21139;-60
2023/11/03 09:30:38;;;;;;;11.57;11.07;;;21.90;82.70;;;;;;5032283;28;20483;-59
2023/11/03 09:33:07;;;;;;;11.30;10.80;;;21.90;82.70;;;;;;5032479;28;20456;-60
2023/11/03 09:35:35;;;;;;;10.07;9.70;;;21.90;82.60;;;;;;5032339;28;21047;-57
2023/11/03 09:38:03;;;;;;;10.90;10.33;;;21.90;82.50;;;;;;5032217;28;20445;-59
2023/11/03 09:40:30;;;;;;;11.20;10.70;;;21.80;82.30;;;;;;5032188;28;21006;-56
2023/11/03 09:42:57;;;;;;;11.10;10.50;;;21.80;82.30;;;;;;5032212;28;20506;-58
2023/11/03 09:45:27;;;;;;;11.07;10.53;;;21.80;82.20;;;;;;5031899;28;20501;-60
2023/11/03 09:47:55;;;;;;;11.63;10.80;;;21.80;82.10;;;;;;5031921;28;20456;-60
2023/11/03 09:50:25;;;;;;;11.60;10.83;;;21.80;82.10;;;;;;5031899;28;20491;-57
2023/11/03 09:52:55;;;;;;;10.47;9.97;;;21.80;82.00;;;;;;5032001;28;20443;-58
2023/11/03 09:55:23;;;;;;;11.27;10.77;;;21.80;82.00;;;;;;5031693;28;20515;-59
2023/11/03 09:57:55;;;;;;;11.47;10.87;;;21.80;82.00;;;;;;5031777;28;20481;-61
2023/11/03 10:00:23;;;;;;;10.50;10.13;;;21.80;81.90;;;;;;5032110;28;20468;-56
2023/11/03 10:02:50;;;;;;;10.83;10.50;;;21.70;81.80;;;;;;5031766;28;20477;-58
2023/11/03 10:05:18;;;;;;;10.70;10.30;;;21.70;81.70;;;;;;5031875;28;20465;-57
2023/11/03 10:08:02;;;;;;;10.40;10.10;;;21.70;81.60;;;;;;5031653;28;20484;-58
2023/11/03 10:10:29;;;;;;;10.27;9.83;;;21.70;81.50;;;;;;5031727;28;20481;-55
2023/11/03 10:12:57;;;;;;;10.97;10.57;;;21.70;81.50;;;;;;5031754;28;20448;-60
2023/11/03 10:15:24;;;;;;;10.37;10.07;;;21.70;81.40;;;;;;5031598;28;20472;-58
2023/11/03 10:17:53;;;;;;;10.87;10.47;;;21.70;81.30;;;;;;5031644;28;20812;-55
2023/11/03 10:20:21;;;;;;;10.67;10.30;;;21.70;81.30;;;;;;5031518;28;20770;-56
2023/11/03 10:22:48;;;;;;;11.83;11.37;;;21.70;81.10;;;;;;5031548;28;20441;-56
2023/11/03 10:25:17;;;;;;;11.67;11.17;;;21.80;81.10;;;;;;5031481;28;20579;-58
2023/11/03 10:27:48;;;;;;;11.60;10.93;;;21.80;81.00;;;;;;5031589;28;20472;-60
2023/11/03 10:30:16;;;;;;;10.77;10.47;;;21.80;80.90;;;;;;5031516;28;20485;-58
2023/11/03 10:32:44;;;;;;;11.03;10.63;;;21.80;80.80;;;;;;5031493;28;20876;-56
2023/11/03 10:35:12;;;;;;;11.40;10.90;;;21.80;80.80;;;;;;5031457;28;20995;-56
2023/11/03 10:37:41;;;;;;;11.50;11.00;;;21.80;80.70;;;;;;5031512;28;20880;-56
2023/11/03 10:40:12;;;;;;;12.17;11.07;;;21.80;80.60;;;;;;5031334;28;20438;-58
2023/11/03 10:42:47;;;;;;;12.03;11.53;;;21.80;80.50;;;;;;5031415;28;20530;-59
2023/11/03 10:45:16;;;;;;;11.93;11.13;;;21.80;80.50;;;;;;5031397;28;20522;-59
2023/11/03 10:47:52;;;;;;;11.07;10.67;;;21.80;80.30;;;;;;5031335;28;20475;-57
2023/11/03 10:50:21;;;;;;;12.50;11.93;;;21.80;80.20;;;;;;5031374;28;20588;-57
2023/11/03 10:52:58;;;;;;;11.73;11.20;;;21.80;80.10;;;;;;5031344;28;20465;-57
2023/11/03 10:55:30;;;;;;;11.20;10.80;;;21.80;80.00;;;;;;5031158;28;20563;-60
2023/11/03 10:58:00;;;;;;;11.83;11.23;;;21.80;79.90;;;;;;5031403;28;20472;-61
2023/11/03 11:00:33;;;;;;;11.17;10.67;;;21.80;79.90;;;;;;5031272;28;20449;-60
2023/11/03 11:03:14;;;;;;;10.33;10.13;;;21.80;79.90;;;;;;5031320;28;20797;-59
2023/11/03 11:05:47;;;;;;;10.30;9.90;;;21.80;79.60;;;;;;5031195;28;20975;-60
2023/11/03 11:08:17;;;;;;;10.10;9.80;;;21.80;79.50;;;;;;5031092;28;20449;-59
2023/11/03 11:10:46;;;;;;;11.03;10.67;;;21.80;79.50;;;;;;5031190;28;20445;-57
2023/11/03 11:13:17;;;;;;;10.27;9.97;;;21.80;79.40;;;;;;5031451;28;20445;-60
2023/11/03 11:16:02;;;;;;;10.77;10.37;;;21.80;79.30;;;;;;5031049;28;20544;-59
2023/11/03 11:18:33;;;;;;;12.03;11.50;;;21.80;79.30;;;;;;5031137;28;20862;-59
2023/11/03 11:21:04;;;;;;;10.87;10.57;;;21.80;79.30;;;;;;5031188;28;20460;-58
2023/11/03 11:23:34;;;;;;;11.00;10.70;;;21.80;79.20;;;;;;5031060;28;20469;-60
2023/11/03 11:26:01;;;;;;;10.53;10.13;;;21.80;79.10;;;;;;5030881;28;20467;-58
2023/11/03 11:28:35;;;;;;;11.03;10.73;;;21.80;79.10;;;;;;5030705;28;21055;-61
2023/11/03 11:31:37;;;;;;;10.37;10.07;;;21.70;78.80;;;;;;5030817;28;20471;-60
2023/11/03 11:34:05;;;;;;;11.20;10.70;;;21.70;78.80;;;;;;5033748;28;20499;-59
2023/11/03 11:36:33;;;;;;;10.57;10.27;;;21.70;78.80;;;;;;5034426;28;20972;-57
2023/11/03 11:39:13;;;;;;;10.23;9.93;;;21.70;78.80;;;;;;5034549;28;20441;-60
2023/11/03 11:41:48;;;;;;;11.00;10.50;;;21.70;78.80;;;;;;5034463;28;20468;-58
2023/11/03 11:44:20;;;;;;;11.27;10.90;;;21.70;78.70;;;;;;5034248;28;20470;-59
2023/11/03 11:46:54;;;;;;;10.47;10.07;;;21.70;78.80;;;;;;5034281;28;20441;-57
2023/11/03 11:49:23;;;;;;;10.37;10.07;;;21.70;78.80;;;;;;5034228;28;20512;-59
2023/11/03 11:51:51;;;;;;;11.83;11.43;;;21.70;78.80;;;;;;5034085;28;20465;-57
2023/11/03 11:54:19;;;;;;;11.93;11.50;;;21.70;78.80;;;;;;5034035;28;20589;-61
2023/11/03 11:56:47;;;;;;;11.60;11.20;;;21.70;78.80;;;;;;5034186;28;20451;-54
2023/11/03 11:59:16;;;;;;;11.83;11.53;;;21.70;78.70;;;;;;5034318;28;20437;-59
2023/11/03 12:01:46;;;;;;;11.00;10.50;;;21.70;78.70;;;;;;5034025;28;20440;-59
2023/11/03 12:04:13;;;;;;;11.07;10.77;;;21.70;78.60;;;;;;5033894;28;20507;-59
2023/11/03 12:06:41;;;;;;;10.47;10.27;;;21.70;78.60;;;;;;5033945;28;20492;-58
2023/11/03 12:09:09;;;;;;;12.07;11.57;;;21.80;78.60;;;;;;5033896;28;20488;-60
2023/11/03 12:11:37;;;;;;;11.20;10.80;;;21.80;78.60;;;;;;5033826;28;20441;-58
2023/11/03 12:14:04;;;;;;;10.43;10.13;;;21.80;78.60;;;;;;5033683;28;20479;-57
2023/11/03 12:16:31;;;;;;;11.03;10.73;;;21.80;79.40;;;;;;5033672;28;20528;-60
2023/11/03 12:18:59;;;;;;;11.43;11.13;;;21.80;78.60;;;;;;5033952;28;20433;-58
2023/11/03 12:21:26;;;;;;;11.30;11.00;;;21.80;78.60;;;;;;5033646;28;20468;-57
2023/11/03 12:23:57;;;;;;;12.17;11.77;;;21.80;78.50;;;;;;5033549;28;20956;-56
2023/11/03 12:26:24;;;;;;;10.20;9.90;;;21.80;78.40;;;;;;5033726;28;20955;-58
2023/11/03 12:28:52;;;;;;;11.03;10.70;;;21.80;78.40;;;;;;5033482;28;20517;-61
2023/11/03 12:31:21;;;;;;;11.00;10.70;;;21.80;78.40;;;;;;5033713;28;20516;-59
2023/11/03 12:33:48;;;;;;;10.90;10.60;;;21.80;78.40;;;;;;5033549;28;20445;-58
2023/11/03 12:36:17;;;;;;;10.80;10.50;;;21.80;78.30;;;;;;5033570;28;21022;-58
2023/11/03 12:38:45;;;;;;;11.37;10.97;;;21.80;78.30;;;;;;5033565;28;20958;-57
2023/11/03 12:41:16;;;;;;;11.00;10.60;;;21.80;78.30;;;;;;5033168;28;20448;-60